Time;durP1;ratioP1;P1;durP2;ratioP2;P2;SDS_P1;SDS_P2;PMS_P1;PMS_P2;Temp;Humidity;BMP_temperature;BMP_pressure;BME280_temperature;BME280_humidity;BME280_pressure;Samples;Min_cycle;Max_cycle;Signal;HPM_P1;HPM_P2
2022/06/21 00:00:21;;;;;;;;;50.50;43.50;29.80;42.30;;;;;;5075398;28;8742;-77
2022/06/21 00:02:48;;;;;;;;;48.25;41.25;29.90;42.20;;;;;;5075051;28;8739;-77
2022/06/21 00:05:28;;;;;;;;;50.00;43.00;30.00;41.80;;;;;;5075039;28;8847;-75
2022/06/21 00:07:56;;;;;;;;;44.67;38.67;30.10;41.70;;;;;;5074939;28;8912;-75
2022/06/21 00:10:22;;;;;;;;;48.00;41.25;30.10;41.60;;;;;;5074977;28;8829;-75
2022/06/21 00:12:48;;;;;;;;;50.33;43.33;29.90;41.80;;;;;;5074879;28;8861;-75
2022/06/21 00:15:14;;;;;;;;;49.33;41.67;30.00;41.90;;;;;;5074760;28;8778;-76
2022/06/21 00:17:43;;;;;;;;;50.25;43.25;29.90;41.80;;;;;;5074617;28;8812;-75
2022/06/21 00:20:24;;;;;;;;;45.00;38.50;29.90;41.90;;;;;;5074946;28;9472;-75
2022/06/21 00:22:50;;;;;;;;;45.67;38.67;30.00;41.90;;;;;;5074649;28;8778;-76
2022/06/21 00:25:26;;;;;;;;;47.00;41.00;30.00;41.80;;;;;;5074641;28;8762;-77
2022/06/21 00:27:53;;;;;;;;;43.67;38.00;30.10;41.70;;;;;;5074573;28;8778;-75
2022/06/21 00:30:20;;;;;;;;;45.00;39.00;30.10;41.40;;;;;;5074542;28;8802;-77
2022/06/21 00:32:49;;;;;;;;;43.33;38.33;30.10;41.60;;;;;;5074513;28;8839;-76
2022/06/21 00:35:18;;;;;;;;;43.00;37.33;30.00;41.70;;;;;;5074574;28;8766;-77
2022/06/21 00:37:45;;;;;;;;;47.00;40.00;29.90;41.70;;;;;;5074731;28;8821;-76
2022/06/21 00:40:22;;;;;;;;;41.00;36.00;30.10;41.60;;;;;;5074738;28;8777;-76
2022/06/21 00:43:01;;;;;;;;;43.00;37.67;30.00;41.50;;;;;;5074477;28;8758;-75
2022/06/21 00:45:27;;;;;;;;;45.33;39.00;29.90;41.50;;;;;;5091214;28;8764;-76
2022/06/21 00:47:56;;;;;;;;;41.33;36.33;29.70;42.20;;;;;;5094543;28;8771;-77
2022/06/21 00:50:33;;;;;;;;;40.33;36.00;29.80;43.10;;;;;;5094567;28;8808;-77
2022/06/21 00:53:21;;;;;;;;;46.67;39.67;29.80;41.90;;;;;;5094578;28;8751;-77
2022/06/21 00:55:59;;;;;;;;;43.33;38.00;29.80;42.20;;;;;;5094391;28;8771;-77
2022/06/21 00:58:26;;;;;;;;;42.67;37.33;29.60;42.30;;;;;;5094475;28;8783;-77
2022/06/21 01:01:05;;;;;;;;;41.00;36.33;29.50;42.50;;;;;;5094430;28;8783;-76
2022/06/21 01:03:36;;;;;;;;;39.00;35.33;29.50;42.60;;;;;;5094446;28;8752;-77
2022/06/21 01:06:08;;;;;;;;;38.00;35.00;29.70;42.50;;;;;;5094710;28;8782;-77
2022/06/21 01:08:39;;;;;;;;;38.00;35.00;29.80;42.10;;;;;;5094656;28;8815;-77
2022/06/21 01:11:11;;;;;;;;;42.67;37.67;29.90;41.90;;;;;;5094325;28;8813;-76
2022/06/21 01:13:46;;;;;;;;;36.67;33.67;29.90;42.70;;;;;;5094644;28;8894;-77
2022/06/21 01:16:13;;;;;;;;;39.33;35.33;29.90;41.60;;;;;;5094600;28;8808;-77
2022/06/21 01:18:42;;;;;;;;;36.33;33.67;30.10;41.50;;;;;;5094155;28;8799;-76
2022/06/21 01:21:11;;;;;;;;;38.67;35.33;30.00;41.40;;;;;;5094325;28;8790;-77
2022/06/21 01:24:02;;;;;;;;;38.00;34.67;30.00;41.50;;;;;;5094303;28;8795;-74
2022/06/21 01:27:00;;;;;;;;;40.67;36.33;30.00;41.30;;;;;;5094262;28;8769;-76
2022/06/21 01:29:30;;;;;;;;;29.00;29.00;29.80;41.70;;;;;;5094205;28;8752;-77
2022/06/21 01:31:59;;;;;;;;;38.00;35.00;29.70;41.90;;;;;;5094410;28;8772;-76
2022/06/21 01:34:26;;;;;;;;;38.33;35.33;29.70;42.00;;;;;;5094116;28;8795;-76
2022/06/21 01:37:12;;;;;;;;;36.33;33.33;29.70;42.00;;;;;;5093903;28;8775;-77
2022/06/21 01:40:06;;;;;;;;;43.33;38.00;29.70;42.10;;;;;;5094356;28;9492;-76
2022/06/21 01:42:34;;;;;;;;;38.33;35.00;29.70;41.90;;;;;;5094007;28;8926;-77
2022/06/21 01:45:05;;;;;;;;;37.33;34.33;29.90;41.80;;;;;;5097611;28;8779;-77
2022/06/21 01:47:42;;;;;;;;;37.67;34.67;29.90;41.70;;;;;;5097983;28;8779;-77
2022/06/21 01:50:09;;;;;;;;;38.00;35.00;29.80;42.00;;;;;;5097853;28;8827;-77
2022/06/21 01:52:38;;;;;;;;;35.67;33.00;29.90;41.90;;;;;;5098036;28;8890;-76
2022/06/21 01:55:22;;;;;;;;;42.33;37.00;29.90;42.80;;;;;;5098057;28;8774;-77
2022/06/21 01:57:50;;;;;;;;;38.00;34.67;30.00;41.50;;;;;;5098008;28;8788;-77
2022/06/21 02:00:17;;;;;;;;;38.33;35.00;30.00;41.60;;;;;;5097644;28;8768;-77
2022/06/21 02:02:48;;;;;;;;;40.67;36.33;29.90;41.60;;;;;;5079698;28;9422;-77
2022/06/21 02:05:21;;;;;;;;;36.67;33.67;29.70;41.80;;;;;;5097705;28;8769;-77
2022/06/21 02:07:53;;;;;;;;;40.33;36.00;29.50;42.00;;;;;;5097584;28;8779;-75
2022/06/21 02:10:27;;;;;;;;;41.67;37.00;29.60;42.10;;;;;;5097722;28;8825;-76
2022/06/21 02:13:02;;;;;;;;;34.67;32.67;29.50;41.90;;;;;;5097586;28;8778;-76
2022/06/21 02:15:44;;;;;;;;;36.33;33.33;29.20;42.00;;;;;;5097564;28;8732;-76
2022/06/21 02:18:12;;;;;;;;;38.67;35.33;29.10;42.60;;;;;;5097220;28;8787;-75
2022/06/21 02:20:42;;;;;;;;;36.67;33.67;29.10;43.00;;;;;;5097317;28;8805;-75
2022/06/21 02:23:13;;;;;;;;;37.67;34.67;29.10;43.00;;;;;;5097192;28;8763;-75
2022/06/21 02:25:41;;;;;;;;;37.67;34.67;29.20;42.70;;;;;;5097298;28;8820;-75
2022/06/21 02:28:09;;;;;;;;;40.00;35.67;29.20;42.60;;;;;;5097412;28;8783;-75
2022/06/21 02:30:36;;;;;;;;;36.00;33.33;29.30;42.50;;;;;;5097064;28;8803;-75
2022/06/21 02:33:05;;;;;;;;;39.33;35.33;29.20;42.40;;;;;;5097034;28;8776;-75
2022/06/21 02:35:46;;;;;;;;;40.33;36.33;29.10;42.20;;;;;;5097029;28;8858;-75
2022/06/21 02:38:44;;;;;;;;;36.67;33.67;29.10;42.60;;;;;;5096861;28;8823;-75
2022/06/21 02:41:20;;;;;;;;;28.33;28.33;29.20;42.50;;;;;;5096450;28;8852;-76
2022/06/21 02:43:55;;;;;;;;;30.00;30.00;29.10;42.10;;;;;;5097146;28;8764;-75
2022/06/21 02:46:37;;;;;;;;;34.00;32.33;29.00;42.30;;;;;;5096878;28;8740;-75
2022/06/21 02:49:26;;;;;;;;;30.00;30.00;28.80;42.60;;;;;;5096836;28;8812;-75
2022/06/21 02:52:01;;;;;;;;;34.67;32.67;28.80;42.80;;;;;;5097003;28;8798;-75
2022/06/21 02:54:59;;;;;;;;;32.33;31.33;28.90;42.60;;;;;;5096021;28;8763;-74
2022/06/21 02:57:37;;;;;;;;;31.00;30.33;29.00;42.40;;;;;;5096591;28;8771;-75
2022/06/21 03:00:12;;;;;;;;;37.00;34.00;29.00;42.50;;;;;;5096533;28;9502;-75
2022/06/21 03:02:38;;;;;;;;;35.00;32.00;28.80;42.80;;;;;;5096610;28;9385;-75
2022/06/21 03:05:07;;;;;;;;;33.67;32.00;28.90;42.60;;;;;;5096732;28;8848;-75
2022/06/21 03:07:43;;;;;;;;;31.67;30.67;28.80;42.70;;;;;;5096548;28;8830;-74
2022/06/21 03:10:18;;;;;;;;;33.67;32.00;28.40;43.40;;;;;;5096536;28;8791;-75
2022/06/21 03:12:47;;;;;;;;;33.67;32.00;28.20;44.10;;;;;;5096560;28;8768;-73
2022/06/21 03:15:13;;;;;;;;;33.00;32.00;28.10;44.60;;;;;;5096304;28;8748;-74
2022/06/21 03:17:54;;;;;;;;;29.00;29.00;28.20;44.70;;;;;;5095972;28;8796;-74
2022/06/21 03:20:21;;;;;;;;;32.00;31.00;28.20;44.60;;;;;;5096291;28;8779;-74
2022/06/21 03:22:50;;;;;;;;;46.67;40.67;28.20;44.60;;;;;;5096132;28;8775;-74
2022/06/21 03:25:27;;;;;;;;;36.33;33.33;28.00;45.00;;;;;;5096071;28;8936;-74
2022/06/21 03:27:59;;;;;;;;;41.00;36.33;27.80;45.20;;;;;;5095822;28;8760;-74
2022/06/21 03:30:35;;;;;;;;;40.67;36.33;27.90;45.50;;;;;;5095803;28;8812;-74
2022/06/21 03:33:03;;;;;;;;;34.00;32.33;28.20;45.00;;;;;;5095919;28;8764;-74
2022/06/21 03:35:33;;;;;;;;;31.00;30.33;28.30;44.50;;;;;;5095852;28;8771;-75
2022/06/21 03:37:59;;;;;;;;;32.00;31.00;28.10;45.00;;;;;;5096073;28;9465;-75
2022/06/21 03:43:25;;;;;;;;;43.00;37.00;27.60;46.70;;;;;;5087948;28;8772;-75
2022/06/21 03:45:53;;;;;;;;;26.67;26.67;27.40;47.10;;;;;;5078367;28;8797;-74
2022/06/21 03:48:20;;;;;;;;;33.33;32.33;27.60;47.00;;;;;;5075298;28;8762;-74
2022/06/21 03:50:53;;;;;;;;;37.33;34.33;27.30;47.70;;;;;;5075104;28;8894;-75
2022/06/21 03:53:33;;;;;;;;;36.00;33.33;27.20;48.10;;;;;;5075248;28;8765;-74
2022/06/21 03:56:19;;;;;;;;;38.67;34.67;27.30;48.20;;;;;;5075490;28;8764;-75
2022/06/21 03:58:53;;;;;;;;;34.00;33.00;27.30;48.00;;;;;;5074442;28;8786;-74
2022/06/21 04:01:33;;;;;;;;;35.67;33.33;27.50;47.70;;;;;;5075101;28;8907;-74
2022/06/21 04:04:09;;;;;;;;;34.67;32.67;27.80;47.00;;;;;;5075086;28;8815;-75
2022/06/21 04:06:43;;;;;;;;;36.33;33.33;27.90;46.80;;;;;;5074775;28;8754;-75
2022/06/21 04:09:20;;;;;;;;;38.67;35.00;27.90;46.90;;;;;;5076286;28;8812;-74
2022/06/21 04:11:54;;;;;;;;;28.33;27.33;28.10;46.40;;;;;;5089065;28;8806;-76
2022/06/21 04:14:23;;;;;;;;;32.67;31.00;28.20;46.20;;;;;;5082587;28;8781;-75
2022/06/21 04:16:49;;;;;;;;;37.00;34.00;28.30;46.00;;;;;;5074992;28;8762;-75
2022/06/21 04:19:33;;;;;;;;;33.00;32.00;27.90;46.20;;;;;;5074538;28;8886;-75
2022/06/21 04:22:26;;;;;;;;;30.00;29.67;28.20;46.40;;;;;;5074766;28;8812;-75
2022/06/21 04:25:23;;;;;;;;;31.67;30.67;28.10;46.50;;;;;;5039491;28;8785;-75
2022/06/21 04:27:52;;;;;;;;;32.67;31.67;28.30;46.10;;;;;;5074688;28;8753;-74
2022/06/21 04:30:28;;;;;;;;;30.33;30.33;28.40;46.00;;;;;;5074752;28;8794;-75
2022/06/21 04:32:59;;;;;;;;;32.33;31.33;28.50;45.70;;;;;;5074684;28;8750;-74
2022/06/21 04:35:35;;;;;;;;;31.33;30.33;28.60;45.60;;;;;;5074587;28;8897;-75
2022/06/21 04:38:09;;;;;;;;;33.00;32.00;28.50;46.10;;;;;;5074691;28;8802;-75
2022/06/21 04:40:41;;;;;;;;;34.00;32.33;28.50;45.90;;;;;;5087596;28;9444;-76
2022/06/21 04:43:21;;;;;;;;;30.00;30.00;28.80;45.60;;;;;;5087866;28;8779;-76
2022/06/21 04:46:13;;;;;;;;;30.67;30.33;28.70;45.50;;;;;;5094651;28;8752;-77
2022/06/21 04:48:48;;;;;;;;;30.00;30.00;28.80;45.50;;;;;;5092368;28;8847;-77
2022/06/21 04:51:24;;;;;;;;;29.33;29.33;28.90;45.60;;;;;;5083451;28;8882;-76
2022/06/21 04:53:58;;;;;;;;;30.00;30.00;28.90;45.50;;;;;;5079965;28;8849;-76
2022/06/21 04:56:51;;;;;;;;;32.67;31.33;28.90;45.80;;;;;;5087222;28;8886;-76
2022/06/21 04:59:32;;;;;;;;;29.00;29.00;28.90;45.60;;;;;;5088731;28;8784;-77
2022/06/21 05:01:59;;;;;;;;;25.67;25.67;29.00;45.40;;;;;;5094508;28;8842;-76
2022/06/21 05:04:36;;;;;;;;;30.33;30.33;29.10;45.50;;;;;;5094371;28;8767;-78
2022/06/21 05:07:11;;;;;;;;;28.33;28.33;29.00;45.40;;;;;;5089974;28;9403;-77
2022/06/21 05:09:39;;;;;;;;;28.33;28.33;29.00;45.70;;;;;;5083675;28;8762;-77
2022/06/21 05:12:25;;;;;;;;;33.00;32.00;29.20;45.50;;;;;;5077217;28;9416;-77
2022/06/21 05:14:57;;;;;;;;;28.33;28.33;29.10;45.80;;;;;;5094424;28;8783;-80
2022/06/21 05:17:24;;;;;;;;;28.33;28.33;29.00;45.90;;;;;;5094381;28;8787;-81
2022/06/21 05:19:59;;;;;;;;;27.00;27.00;29.10;45.80;;;;;;5097942;28;8783;-79
2022/06/21 05:22:32;;;;;;;;;25.67;25.67;29.30;45.70;;;;;;5080559;28;8795;-80
2022/06/21 05:25:00;;;;;;;;;27.00;27.00;29.30;45.60;;;;;;5098651;28;9437;-77
2022/06/21 05:27:31;;;;;;;;;25.67;25.67;29.30;45.70;;;;;;5098462;28;8802;-82
2022/06/21 05:30:16;;;;;;;;;29.33;29.33;29.30;45.70;;;;;;5098440;28;8807;-81
2022/06/21 05:32:52;;;;;;;;;21.67;21.67;29.30;46.00;;;;;;5098158;28;8787;-80
2022/06/21 05:35:22;;;;;;;;;28.67;28.33;29.30;45.60;;;;;;5098085;28;9370;-80
2022/06/21 05:37:53;;;;;;;;;30.00;29.67;29.50;45.60;;;;;;5098383;28;8800;-82
2022/06/21 05:40:33;;;;;;;;;26.33;26.33;29.30;46.10;;;;;;5098307;28;8760;-82
2022/06/21 05:42:59;;;;;;;;;21.00;21.00;29.30;46.20;;;;;;5098197;28;8748;-82
2022/06/21 05:45:33;;;;;;;;;26.67;26.67;28.80;46.90;;;;;;5098023;28;8783;-80
2022/06/21 05:48:02;;;;;;;;;24.67;24.67;28.70;47.50;;;;;;5098093;28;8736;-80
2022/06/21 05:50:32;;;;;;;;;24.00;24.00;28.80;47.50;;;;;;5097794;28;8791;-80
2022/06/21 05:53:14;;;;;;;;;22.33;22.33;29.00;47.00;;;;;;5097715;28;8855;-81
2022/06/21 05:55:45;;;;;;;;;24.33;24.33;29.20;46.60;;;;;;5098024;28;9456;-81
2022/06/21 05:58:28;;;;;;;;;25.67;25.67;29.30;46.40;;;;;;5097766;28;8787;-80
2022/06/21 06:01:08;;;;;;;;;28.00;27.67;29.20;46.50;;;;;;5097705;28;8748;-80
2022/06/21 06:04:06;;;;;;;;;22.00;22.00;29.50;45.90;;;;;;5097827;28;8756;-81
2022/06/21 06:06:36;;;;;;;;;26.00;26.00;29.00;46.80;;;;;;5015267;28;8777;-81
2022/06/21 06:09:10;;;;;;;;;25.00;25.00;29.10;46.80;;;;;;5015188;28;8889;-80
2022/06/21 06:11:59;;;;;;;;;26.00;25.00;29.30;46.40;;;;;;5015625;28;9419;-82
2022/06/21 06:14:50;;;;;;;;;22.67;22.67;29.30;46.60;;;;;;5015045;28;12299;-82
2022/06/21 06:17:33;;;;;;;;;24.67;24.67;29.60;46.00;;;;;;5015018;28;8784;-77
2022/06/21 06:20:37;;;;;;;;;24.67;24.67;30.00;45.30;;;;;;5015247;28;8780;-78
2022/06/21 06:23:18;;;;;;;;;25.00;25.00;29.70;45.60;;;;;;5015058;28;8923;-75
2022/06/21 06:25:50;;;;;;;;;24.33;24.33;29.70;46.10;;;;;;5015091;28;8946;-75
2022/06/21 06:28:35;;;;;;;;;24.33;24.33;29.90;45.40;;;;;;5014969;28;9403;-77
2022/06/21 06:31:22;;;;;;;;;27.00;27.00;30.20;44.80;;;;;;5014684;28;8836;-77
2022/06/21 06:34:01;;;;;;;;;26.00;26.00;30.20;44.40;;;;;;5014868;28;8799;-76
2022/06/21 06:36:40;;;;;;;;;23.33;23.33;29.90;44.80;;;;;;5014787;28;8780;-78
2022/06/21 06:39:31;;;;;;;;;22.67;22.67;30.20;44.80;;;;;;5014758;28;8827;-76
2022/06/21 06:42:17;;;;;;;;;20.00;20.00;30.30;43.90;;;;;;5014750;28;11519;-78
2022/06/21 06:44:49;;;;;;;;;23.00;23.00;30.30;43.30;;;;;;5096919;28;11444;-76
2022/06/21 06:47:20;;;;;;;;;23.00;23.00;30.40;42.90;;;;;;5096717;28;11527;-77
2022/06/21 06:49:59;;;;;;;;;17.67;17.67;30.50;43.00;;;;;;5096382;28;11522;-76
2022/06/21 06:52:39;;;;;;;;;18.00;18.00;29.90;43.40;;;;;;5096726;28;8755;-76
2022/06/21 06:55:15;;;;;;;;;20.00;20.00;30.00;43.20;;;;;;5096436;28;11437;-75
2022/06/21 06:58:06;;;;;;;;;22.00;22.00;30.30;42.90;;;;;;5096469;28;11442;-75
2022/06/21 07:00:44;;;;;;;;;22.00;22.00;30.20;43.00;;;;;;5096247;28;11582;-75
2022/06/21 07:03:15;;;;;;;;;22.33;22.33;30.40;42.90;;;;;;5095977;28;11532;-75
2022/06/21 07:06:34;;;;;;;;;22.33;22.33;30.40;43.50;;;;;;5096247;28;11523;-75
2022/06/21 07:09:10;;;;;;;;;20.00;20.00;30.50;43.30;;;;;;5013729;28;8796;-76
2022/06/21 07:11:39;;;;;;;;;27.33;27.33;30.50;43.20;;;;;;5013859;28;11531;-76
2022/06/21 07:14:11;;;;;;;;;22.00;22.00;30.60;43.00;;;;;;5014059;28;11498;-73
2022/06/21 07:16:39;;;;;;;;;21.00;21.00;30.80;42.50;;;;;;5013801;28;12105;-75
2022/06/21 07:19:08;;;;;;;;;26.00;25.67;30.90;42.30;;;;;;5013466;28;11506;-74
2022/06/21 07:21:34;;;;;;;;;20.00;20.00;30.70;43.50;;;;;;5013616;28;11473;-74
2022/06/21 07:24:00;;;;;;;;;20.33;20.33;30.50;41.80;;;;;;5013508;28;11559;-74
2022/06/21 07:26:46;;;;;;;;;22.67;21.67;30.60;41.60;;;;;;5013834;28;8772;-74
2022/06/21 07:29:23;;;;;;;;;17.75;17.75;30.60;41.30;;;;;;5013775;28;8903;-73
2022/06/21 07:31:56;;;;;;;;;16.67;16.67;30.60;41.30;;;;;;5013627;28;11513;-74
2022/06/21 07:34:39;;;;;;;;;18.00;18.00;30.50;40.70;;;;;;5013635;28;11519;-74
2022/06/21 07:37:29;;;;;;;;;20.00;20.00;30.90;40.60;;;;;;5013369;28;11486;-75
2022/06/21 07:40:14;;;;;;;;;22.33;22.33;31.00;40.70;;;;;;5013665;28;11508;-76
2022/06/21 07:42:54;;;;;;;;;9.67;9.67;31.10;40.30;;;;;;5043015;28;11561;-76
2022/06/21 07:45:31;;;;;;;;;16.00;16.00;30.70;40.40;;;;;;5095557;28;11459;-75
2022/06/21 07:48:08;;;;;;;;;17.33;17.33;30.40;41.30;;;;;;5095422;28;11542;-77
2022/06/21 07:50:39;;;;;;;;;20.33;20.33;30.10;42.70;;;;;;5095280;28;12098;-78
2022/06/21 07:53:15;;;;;;;;;19.33;19.33;30.60;41.80;;;;;;5095393;28;8767;-76
2022/06/21 07:55:46;;;;;;;;;21.00;21.00;30.50;41.80;;;;;;5095477;28;12114;-76
2022/06/21 07:58:24;;;;;;;;;18.67;18.67;30.50;41.70;;;;;;5095646;28;8779;-77
2022/06/21 08:06:44;;;;;;;;;21.33;21.33;30.60;42.30;;;;;;5095194;28;8735;-77
2022/06/21 08:09:29;;;;;;;;;19.33;19.33;30.60;42.30;;;;;;5095498;28;8791;-75
2022/06/21 08:12:00;;;;;;;;;23.00;23.00;30.60;42.00;;;;;;5095287;28;8795;-77
2022/06/21 08:14:33;;;;;;;;;18.00;18.00;30.90;42.00;;;;;;5095327;28;8874;-80
2022/06/21 08:17:02;;;;;;;;;20.00;20.00;31.00;41.60;;;;;;5095055;28;11491;-79
2022/06/21 08:19:55;;;;;;;;;21.33;21.33;30.90;41.60;;;;;;5095195;28;8922;-81
2022/06/21 08:22:33;;;;;;;;;20.33;20.33;31.10;41.20;;;;;;5095078;28;11839;-79
2022/06/21 08:25:17;;;;;;;;;22.00;22.00;31.00;40.30;;;;;;5094855;28;8790;-76
2022/06/21 08:27:55;;;;;;;;;23.33;23.33;31.40;40.90;;;;;;5096345;28;11453;-76
2022/06/21 08:30:24;;;;;;;;;20.67;20.67;31.40;40.90;;;;;;5095982;28;8806;-81
2022/06/21 08:32:56;;;;;;;;;19.33;19.33;31.50;39.70;;;;;;5094641;28;8828;-79
2022/06/21 08:35:34;;;;;;;;;19.00;19.00;31.60;39.30;;;;;;5094882;28;11542;-78
2022/06/21 08:38:07;;;;;;;;;21.67;21.67;31.80;39.70;;;;;;5094462;28;11483;-80
2022/06/21 08:40:45;;;;;;;;;21.00;21.00;32.00;39.40;;;;;;5094681;28;8756;-80
2022/06/21 08:43:48;;;;;;;;;23.33;23.33;32.10;38.80;;;;;;5094356;28;11419;-80
2022/06/21 08:46:30;;;;;;;;;22.67;22.67;32.10;39.50;;;;;;5094972;28;8747;-79
2022/06/21 08:49:30;;;;;;;;;21.33;21.33;32.20;39.20;;;;;;5094577;28;8736;-78
2022/06/21 08:52:15;;;;;;;;;22.00;22.00;32.30;39.10;;;;;;5094376;28;8787;-79
2022/06/21 08:55:09;;;;;;;;;19.00;19.00;32.20;38.30;;;;;;5094497;28;11447;-80
2022/06/21 08:57:47;;;;;;;;;17.67;17.67;32.20;38.40;;;;;;5094329;28;11562;-80
2022/06/21 09:00:19;;;;;;;;;24.00;24.00;32.30;37.90;;;;;;5094365;28;11631;-76
2022/06/21 09:03:13;;;;;;;;;22.33;22.33;32.50;37.90;;;;;;5094394;28;11542;-76
2022/06/21 09:06:10;;;;;;;;;17.67;17.67;32.30;37.90;;;;;;5094439;28;11485;-77
2022/06/21 09:08:44;;;;;;;;;20.00;20.00;32.60;38.10;;;;;;5094046;28;12177;-75
2022/06/21 09:11:25;;;;;;;;;22.33;22.00;32.90;37.90;;;;;;5093926;28;11468;-78
2022/06/21 09:14:29;;;;;;;;;19.67;19.67;33.10;37.40;;;;;;5094147;28;11551;-76
2022/06/21 09:17:16;;;;;;;;;18.00;18.00;33.00;37.70;;;;;;5094200;28;11456;-74
2022/06/21 09:19:45;;;;;;;;;14.67;14.67;32.90;36.60;;;;;;5093923;28;11464;-74
2022/06/21 09:22:21;;;;;;;;;20.67;20.67;32.70;37.00;;;;;;5093854;28;11420;-73
2022/06/21 09:25:02;;;;;;;;;16.00;16.00;33.10;36.50;;;;;;5094141;28;11444;-75
2022/06/21 09:27:40;;;;;;;;;19.33;19.33;33.00;35.70;;;;;;5093844;28;11437;-75
2022/06/21 09:30:23;;;;;;;;;20.33;20.33;33.10;35.30;;;;;;5093877;28;11618;-75
2022/06/21 09:33:07;;;;;;;;;20.00;20.00;33.20;34.50;;;;;;5094236;28;11417;-77
2022/06/21 09:35:54;;;;;;;;;19.67;19.67;33.50;35.00;;;;;;5093971;28;11386;-75
2022/06/21 09:39:21;;;;;;;;;19.00;19.00;33.60;34.40;;;;;;5093827;28;11498;-76
2022/06/21 09:42:11;;;;;;;;;14.00;14.00;33.90;34.20;;;;;;5011992;28;8776;-74
2022/06/21 09:44:51;;;;;;;;;21.00;21.00;34.00;35.20;;;;;;5011924;28;12126;-75
2022/06/21 09:47:35;;;;;;;;;18.00;18.00;33.80;35.50;;;;;;5011914;28;11452;-74
2022/06/21 09:50:30;;;;;;;;;18.33;18.33;33.80;34.90;;;;;;5011699;28;11550;-75
2022/06/21 09:53:24;;;;;;;;;19.00;19.00;34.10;34.80;;;;;;5011672;28;11508;-75
2022/06/21 09:56:07;;;;;;;;;23.67;23.67;34.30;33.90;;;;;;5011800;28;11490;-79
2022/06/21 09:58:58;;;;;;;;;24.00;22.67;34.20;35.30;;;;;;5012209;28;8857;-78
2022/06/21 10:01:41;;;;;;;;;21.33;21.33;34.40;34.70;;;;;;5011674;28;11511;-79
2022/06/21 10:04:15;;;;;;;;;20.67;20.67;34.60;33.80;;;;;;5012222;28;11573;-78
2022/06/21 10:07:08;;;;;;;;;17.00;17.00;34.70;33.80;;;;;;5015331;28;11534;-74
2022/06/21 10:09:55;;;;;;;;;18.67;18.67;35.10;33.60;;;;;;5015077;28;12155;-73
2022/06/21 10:12:35;;;;;;;;;18.67;18.67;34.60;33.20;;;;;;5015301;28;11513;-78
2022/06/21 10:15:19;;;;;;;;;16.75;16.75;34.80;32.90;;;;;;5045327;28;11469;-78
2022/06/21 10:18:34;;;;;;;;;20.00;20.00;34.70;32.70;;;;;;5097174;28;12200;-79
2022/06/21 10:21:40;;;;;;;;;20.67;20.67;34.90;32.60;;;;;;5024913;28;11487;-78
2022/06/21 10:24:18;;;;;;;;;18.00;18.00;35.20;32.40;;;;;;5096856;28;11459;-80
2022/06/21 10:26:59;;;;;;;;;15.00;15.00;35.60;31.90;;;;;;5096999;28;11465;-75
2022/06/21 10:29:29;;;;;;;;;19.33;19.33;35.70;32.20;;;;;;5096994;28;11544;-76
2022/06/21 10:31:57;;;;;;;;;19.33;19.33;35.90;32.20;;;;;;5096654;28;11475;-76
2022/06/21 10:35:00;;;;;;;;;21.00;21.00;36.20;31.90;;;;;;5096468;28;11457;-77
2022/06/21 10:38:02;;;;;;;;;18.00;18.00;36.50;31.40;;;;;;5096737;28;11502;-76
2022/06/21 10:41:01;;;;;;;;;18.33;18.33;36.70;30.90;;;;;;5091449;28;11458;-77
2022/06/21 10:43:39;;;;;;;;;17.00;17.00;36.80;30.40;;;;;;5096739;28;11461;-80
2022/06/21 10:46:21;;;;;;;;;16.67;16.67;36.80;29.80;;;;;;5096919;28;11472;-80
2022/06/21 10:48:57;;;;;;;;;19.00;19.00;36.70;29.90;;;;;;5096743;28;11484;-78
2022/06/21 10:51:48;;;;;;;;;18.00;18.00;36.80;29.80;;;;;;5076913;28;12111;-82
2022/06/21 10:54:20;;;;;;;;;18.25;18.25;37.10;30.00;;;;;;5096164;28;11461;-78
2022/06/21 10:57:17;;;;;;;;;18.00;18.00;37.10;29.50;;;;;;5096356;28;11497;-79
2022/06/21 11:02:51;;;;;;;;;20.33;20.33;37.00;30.10;;;;;;5096858;28;12099;-81
2022/06/21 11:05:49;;;;;;;;;17.50;17.50;37.50;29.30;;;;;;5096277;28;11428;-80
2022/06/21 11:08:34;;;;;;;;;15.00;15.00;37.50;29.20;;;;;;5078526;28;11591;-79
2022/06/21 11:11:24;;;;;;;;;16.00;16.00;38.30;28.30;;;;;;5078114;28;11482;-80
2022/06/21 11:14:11;;;;;;;;;16.50;16.50;38.70;28.30;;;;;;5096576;28;11546;-81
2022/06/21 11:16:47;;;;;;;;;19.50;19.50;38.50;28.00;;;;;;5095284;28;12116;-81
2022/06/21 11:19:43;;;;;;;;;15.00;15.00;38.70;28.20;;;;;;5095849;28;11538;-80
2022/06/21 11:22:39;;;;;;;;;16.75;16.75;38.10;28.00;;;;;;5096263;28;12104;-82
2022/06/21 11:25:25;;;;;;;;;19.00;19.00;37.70;28.90;;;;;;5095944;28;11446;-82
2022/06/21 11:28:00;;;;;;;;;16.25;16.25;37.90;28.90;;;;;;5077923;28;11460;-81
2022/06/21 11:30:41;;;;;;;;;17.75;17.75;37.90;28.30;;;;;;5095809;28;11515;-79
2022/06/21 11:33:51;;;;;;;;;16.33;16.33;37.90;28.50;;;;;;5099487;28;11457;-82
2022/06/21 11:36:49;;;;;;;;;18.25;18.25;38.40;28.10;;;;;;5097251;28;11607;-82
2022/06/21 11:39:27;;;;;;;;;19.67;19.67;38.30;28.10;;;;;;5092123;28;11479;-81
2022/06/21 11:42:08;;;;;;;;;19.50;19.50;38.50;27.60;;;;;;5078735;28;11576;-80
2022/06/21 11:45:16;;;;;;;;;19.33;19.33;37.60;28.40;;;;;;5077782;28;11460;-81
2022/06/21 11:48:12;;;;;;;;;20.00;20.00;37.70;29.10;;;;;;5017381;28;11494;-81
2022/06/21 11:50:46;;;;;;;;;19.00;19.00;38.20;29.10;;;;;;5017321;28;11601;-81
2022/06/21 11:53:33;;;;;;;;;19.67;19.67;38.80;28.60;;;;;;5020695;28;11495;-81
2022/06/21 11:56:28;;;;;;;;;14.25;14.25;38.90;27.80;;;;;;5024480;28;11589;-80
2022/06/21 11:59:33;;;;;;;;;19.75;19.75;38.40;28.60;;;;;;5017575;28;11531;-83
2022/06/21 12:02:09;;;;;;;;;17.50;17.50;38.40;28.40;;;;;;5017686;28;11480;-81
2022/06/21 12:04:40;;;;;;;;;19.50;19.50;38.50;28.50;;;;;;5018052;28;11458;-78
2022/06/21 12:07:41;;;;;;;;;20.00;20.00;38.80;28.20;;;;;;5021978;28;11481;-82
2022/06/21 12:10:20;;;;;;;;;19.50;19.50;39.10;27.80;;;;;;5018659;28;11625;-81
2022/06/21 12:13:41;;;;;;;;;18.50;18.50;39.10;27.80;;;;;;5019082;28;11586;-78
2022/06/21 12:17:07;;;;;;;;;17.00;17.00;39.50;27.70;;;;;;4975328;28;11602;-81
2022/06/21 12:19:41;;;;;;;;;18.33;18.33;40.00;27.00;;;;;;4950691;28;11718;-82
2022/06/21 12:22:28;;;;;;;;;17.50;17.50;40.10;27.40;;;;;;4954503;28;12216;-83
2022/06/21 12:24:54;;;;;;;;;18.50;18.50;40.30;27.20;;;;;;4953152;28;11567;-81
2022/06/21 12:27:21;;;;;;;;;19.50;19.50;40.40;26.60;;;;;;4952610;28;11464;-81
2022/06/21 12:29:47;;;;;;;;;14.75;14.75;40.40;26.90;;;;;;4954261;28;11491;-81
2022/06/21 12:32:22;;;;;;;;;19.25;19.25;40.50;26.70;;;;;;4953964;28;11443;-82
2022/06/21 12:35:02;;;;;;;;;17.50;17.50;40.20;26.40;;;;;;4954571;28;8781;-82
2022/06/21 12:37:52;;;;;;;;;17.50;17.50;40.20;26.50;;;;;;4954232;28;11618;-81
2022/06/21 12:41:02;;;;;;;;;17.00;17.00;39.60;27.30;;;;;;4955496;28;11554;-82
2022/06/21 12:43:46;;;;;;;;;19.00;19.00;39.90;26.80;;;;;;4955232;28;11444;-79
2022/06/21 12:46:27;;;;;;;;;18.33;18.33;39.10;27.40;;;;;;4954623;28;11492;-83
2022/06/21 12:49:27;;;;;;;;;18.00;18.00;38.80;28.30;;;;;;4959439;28;11597;-83
2022/06/21 12:52:00;;;;;;;;;17.25;17.25;39.80;27.70;;;;;;5044902;28;11569;-78
2022/06/21 12:55:04;;;;;;;;;16.00;16.00;40.20;26.90;;;;;;5050690;28;11512;-78
2022/06/21 12:57:45;;;;;;;;;15.25;15.25;40.30;27.10;;;;;;4969638;28;11711;-75
2022/06/21 13:00:22;;;;;;;;;17.75;17.75;40.80;26.80;;;;;;4971904;28;11507;-80
2022/06/21 13:03:22;;;;;;;;;20.25;20.25;41.10;26.40;;;;;;4967722;28;11498;-79
2022/06/21 13:06:18;;;;;;;;;18.75;18.75;40.20;26.20;;;;;;4913440;29;11687;-80
2022/06/21 13:09:04;;;;;;;;;17.25;17.25;39.80;27.20;;;;;;4914178;29;11657;-79
2022/06/21 13:11:58;;;;;;;;;20.67;20.67;40.30;26.90;;;;;;4913416;29;11606;-79
2022/06/21 13:14:43;;;;;;;;;18.00;18.00;39.80;26.70;;;;;;4908314;29;11553;-77
2022/06/21 13:17:39;;;;;;;;;19.50;19.50;39.80;27.00;;;;;;4915935;29;11498;-77
2022/06/21 13:20:32;;;;;;;;;17.25;17.25;40.50;26.60;;;;;;4934597;29;11528;-77
2022/06/21 13:23:13;;;;;;;;;20.00;20.00;40.50;26.50;;;;;;4934642;29;11660;-78
2022/06/21 13:25:54;;;;;;;;;13.25;13.25;40.60;26.20;;;;;;4934079;29;11506;-77
2022/06/21 13:28:44;;;;;;;;;15.00;15.00;41.00;26.40;;;;;;4934545;29;11705;-76
2022/06/21 13:31:25;;;;;;;;;15.33;15.33;40.60;26.40;;;;;;4934636;29;11556;-76
2022/06/21 13:34:04;;;;;;;;;18.25;18.25;40.50;26.10;;;;;;4982741;28;12262;-78
2022/06/21 13:36:45;;;;;;;;;17.00;17.00;40.80;26.10;;;;;;4991863;28;11578;-78
2022/06/21 13:39:23;;;;;;;;;19.75;19.75;40.40;26.60;;;;;;4989465;28;12159;-79
2022/06/21 13:44:49;;;;;;;;;16.00;16.00;39.80;27.20;;;;;;5052037;28;11472;-77
2022/06/21 13:47:21;;;;;;;;;18.00;18.00;39.60;27.60;;;;;;5054240;28;11499;-77
2022/06/21 13:50:11;;;;;;;;;21.67;21.67;39.40;27.10;;;;;;5053771;28;11497;-77